createdAt,value
2022-07-31T00:00:22.571Z,94381.19
2022-07-31T00:02:50.898Z,94382.03
2022-07-31T00:05:18.510Z,94376.06
2022-07-31T00:07:46.109Z,94380.72
2022-07-31T00:10:13.807Z,94379.63
2022-07-31T00:12:42.745Z,94377.69
2022-07-31T00:15:11.219Z,94374.44
2022-07-31T00:17:38.987Z,94370.91
2022-07-31T00:20:07.925Z,94373.66
2022-07-31T00:22:36.429Z,94376.38
2022-07-31T00:25:04.244Z,94369.56
2022-07-31T00:27:31.890Z,94359.75
2022-07-31T00:30:00.936Z,94365.50
2022-07-31T00:32:28.606Z,94357.31
2022-07-31T00:34:56.294Z,94361.97
2022-07-31T00:37:23.993Z,94363.84
2022-07-31T00:39:51.667Z,94361.44
2022-07-31T00:42:19.359Z,94353.25
2022-07-31T00:44:47.859Z,94346.16
2022-07-31T00:47:17.821Z,94354.31
2022-07-31T00:49:51.837Z,94351.06
2022-07-31T00:52:19.482Z,94354.91
2022-07-31T00:54:47.133Z,94349.19
2022-07-31T00:57:15.309Z,94355.72
2022-07-31T00:59:43.654Z,94353.00
2022-07-31T01:02:11.376Z,94357.63
2022-07-31T01:04:41.803Z,94353.00
2022-07-31T01:07:12.142Z,94353.00
2022-07-31T01:09:39.826Z,94360.34
2022-07-31T01:12:12.971Z,94357.63
2022-07-31T01:14:42.736Z,94359.81
2022-07-31T01:17:10.349Z,94359.03
2022-07-31T01:19:43.179Z,94353.00
2022-07-31T01:22:33.183Z,94351.66
2022-07-31T01:25:07.768Z,94349.19
2022-07-31T01:27:49.611Z,94348.41
2022-07-31T01:30:19.106Z,94350.59
2022-07-31T01:32:48.204Z,94352.81
2022-07-31T01:35:16.606Z,94349.53
2022-07-31T01:37:46.429Z,94353.06
2022-07-31T01:40:15.231Z,94352.25
2022-07-31T01:42:44.282Z,94354.44
2022-07-31T01:45:12.569Z,94353.34
2022-07-31T01:47:41.964Z,94346.78
2022-07-31T01:50:43.283Z,94349.25
2022-07-31T01:52:58.167Z,94338.63
2022-07-31T01:55:25.902Z,94340.53
2022-07-31T01:57:53.537Z,94341.34
2022-07-31T02:00:33.711Z,94344.38
2022-07-31T02:03:09.543Z,94342.16
2022-07-31T02:05:37.648Z,94344.06
2022-07-31T02:08:05.818Z,94347.88
2022-07-31T02:10:33.441Z,94338.34
2022-07-31T02:13:02.688Z,94343.00
2022-07-31T02:15:30.463Z,94346.00
2022-07-31T02:17:58.226Z,94346.00
2022-07-31T02:20:27.829Z,94349.53
2022-07-31T02:22:55.456Z,94351.72
2022-07-31T02:25:23.089Z,94350.38
2022-07-31T02:27:53.741Z,94349.81
2022-07-31T02:30:26.386Z,94345.19
2022-07-31T02:32:53.980Z,94345.19
2022-07-31T02:35:21.618Z,94344.66
2022-07-31T02:37:51.834Z,94348.47
2022-07-31T02:40:19.493Z,94344.94
2022-07-31T02:42:47.349Z,94336.50
2022-07-31T02:45:14.984Z,94341.41
2022-07-31T02:47:42.654Z,94344.44
2022-07-31T02:50:10.621Z,94339.00
2022-07-31T02:52:38.702Z,94339.25
2022-07-31T02:55:08.498Z,94332.44
2022-07-31T02:57:36.075Z,94331.09
2022-07-31T03:00:15.648Z,94334.66
2022-07-31T03:02:44.284Z,94333.81
2022-07-31T03:05:12.008Z,94331.34
2022-07-31T03:07:39.609Z,94330.56
2022-07-31T03:10:10.869Z,94333.28
2022-07-31T03:12:39.793Z,94334.09
2022-07-31T03:15:09.789Z,94336.00
2022-07-31T03:17:38.335Z,94343.34
2022-07-31T03:20:10.737Z,94342.56
2022-07-31T03:22:39.696Z,94343.91
2022-07-31T03:25:09.213Z,94344.97
2022-07-31T03:27:36.797Z,94345.81
2022-07-31T03:30:04.981Z,94338.75
2022-07-31T03:32:32.618Z,94344.72
2022-07-31T03:35:00.281Z,94346.63
2022-07-31T03:37:28.006Z,94343.09
2022-07-31T03:39:55.671Z,94351.25
2022-07-31T03:42:24.687Z,94353.97
2022-07-31T03:44:52.385Z,94340.38
2022-07-31T03:47:20.136Z,94344.72
2022-07-31T03:49:47.740Z,94343.09
2022-07-31T03:52:15.582Z,94340.09
2022-07-31T03:54:43.596Z,94336.53
2022-07-31T03:57:11.180Z,94334.91
2022-07-31T03:59:48.036Z,94339.53
2022-07-31T04:02:18.742Z,94342.00
2022-07-31T04:04:46.761Z,94339.53
2022-07-31T04:07:14.344Z,94336.81
2022-07-31T04:09:42.630Z,94336.00
2022-07-31T04:12:10.430Z,94341.72
2022-07-31T04:14:38.127Z,94340.94
2022-07-31T04:17:07.168Z,94343.34
2022-07-31T04:19:35.066Z,94340.94
2022-07-31T04:22:03.002Z,94342.03
2022-07-31T04:24:30.792Z,94349.38
2022-07-31T04:26:58.477Z,94346.38
2022-07-31T04:29:28.557Z,94347.47
2022-07-31T04:31:56.340Z,94352.09
2022-07-31T04:34:25.571Z,94350.47
2022-07-31T04:36:53.205Z,94348.56
2022-07-31T04:39:20.821Z,94365.19
2022-07-31T04:41:48.422Z,94362.47
2022-07-31T04:44:16.136Z,94367.09
2022-07-31T04:46:44.382Z,94358.13
2022-07-31T04:49:13.135Z,94358.13
2022-07-31T04:51:42.321Z,94354.56
2022-07-31T04:54:09.934Z,94355.66
2022-07-31T04:56:42.038Z,94362.22
2022-07-31T04:59:11.195Z,94357.59
2022-07-31T05:01:39.199Z,94361.41
2022-07-31T05:04:07.151Z,94363.84
2022-07-31T05:06:36.337Z,94357.59
2022-07-31T05:09:09.002Z,94359.47
2022-07-31T05:11:38.422Z,94363.84
2022-07-31T05:14:06.801Z,94355.66
2022-07-31T05:16:34.522Z,94358.38
2022-07-31T05:19:02.452Z,94351.03
2022-07-31T05:21:30.888Z,94352.66
2022-07-31T05:23:58.860Z,94355.13
2022-07-31T05:26:28.488Z,94352.66
2022-07-31T05:28:58.530Z,94357.28
2022-07-31T05:31:26.640Z,94354.28
2022-07-31T05:33:54.423Z,94358.91
2022-07-31T05:36:22.122Z,94353.47
2022-07-31T05:38:49.744Z,94355.91
2022-07-31T05:41:17.404Z,94361.63
2022-07-31T05:43:46.397Z,94367.66
2022-07-31T05:46:16.660Z,94363.00
2022-07-31T05:48:44.454Z,94370.06
2022-07-31T05:51:12.400Z,94366.53
2022-07-31T05:53:40.264Z,94360.81
2022-07-31T05:56:11.889Z,94371.69
2022-07-31T05:58:39.549Z,94368.97
2022-07-31T06:01:08.626Z,94370.59
2022-07-31T06:03:51.503Z,94370.59
2022-07-31T06:06:20.185Z,94371.44
2022-07-31T06:08:47.882Z,94367.88
2022-07-31T06:11:15.480Z,94373.06
2022-07-31T06:13:43.744Z,94364.63
2022-07-31T06:16:14.736Z,94379.03
2022-07-31T06:18:43.086Z,94377.13
2022-07-31T06:23:38.904Z,94368.91
2022-07-31T06:26:06.529Z,94367.81
2022-07-31T06:28:47.833Z,94367.56
2022-07-31T06:31:18.850Z,94373.00
2022-07-31T06:33:48.183Z,94373.81
2022-07-31T06:36:16.233Z,94376.81
2022-07-31T06:38:43.872Z,94374.09
2022-07-31T06:41:11.468Z,94373.81
2022-07-31T06:43:39.149Z,94379.25
2022-07-31T06:46:06.745Z,94378.97
2022-07-31T06:48:35.679Z,94386.06
2022-07-31T06:51:28.379Z,94380.59
2022-07-31T06:53:51.050Z,94387.69
2022-07-31T06:56:18.792Z,94383.09
2022-07-31T06:58:46.450Z,94388.25
2022-07-31T07:01:14.175Z,94380.91
2022-07-31T07:03:43.187Z,94376.53
2022-07-31T07:06:11.240Z,94380.59
2022-07-31T07:08:38.850Z,94376.78
2022-07-31T07:11:09.164Z,94381.69
2022-07-31T07:13:46.311Z,94381.69
2022-07-31T07:16:15.986Z,94385.97
2022-07-31T07:18:44.943Z,94382.16
2022-07-31T07:21:12.527Z,94382.63
2022-07-31T07:23:40.193Z,94383.13
2022-07-31T07:26:07.901Z,94378.72
2022-07-31T07:28:35.588Z,94381.41
2022-07-31T07:31:03.353Z,94374.00
2022-07-31T07:33:41.633Z,94361.97
2022-07-31T07:36:23.319Z,94365.47
2022-07-31T07:38:51.392Z,94368.97
2022-07-31T07:41:19.060Z,94364.78
2022-07-31T07:43:51.591Z,94369.66
2022-07-31T07:46:20.770Z,94363.38
2022-07-31T07:48:49.073Z,94369.59
2022-07-31T07:51:18.208Z,94366.28
2022-07-31T07:53:45.827Z,94366.22
2022-07-31T07:56:13.629Z,94367.31
2022-07-31T07:58:41.241Z,94372.44
2022-07-31T08:01:09.044Z,94369.97
2022-07-31T08:03:48.578Z,94367.75
2022-07-31T08:06:21.230Z,94362.53
2022-07-31T08:08:48.960Z,94362.22
2022-07-31T08:11:17.033Z,94365.50
2022-07-31T08:13:50.158Z,94361.38
2022-07-31T08:16:19.180Z,94359.97
2022-07-31T08:18:46.799Z,94359.69
2022-07-31T08:21:14.475Z,94353.94
2022-07-31T08:23:43.519Z,94362.63
2022-07-31T08:26:11.589Z,94356.91
2022-07-31T08:28:41.583Z,94357.72
2022-07-31T08:31:17.834Z,94359.88
2022-07-31T08:33:45.465Z,94359.56
2022-07-31T08:36:13.101Z,94364.75
2022-07-31T08:38:40.740Z,94360.91
2022-07-31T08:41:09.807Z,94359.81
2022-07-31T08:44:00.691Z,94363.06
2022-07-31T08:46:24.965Z,94360.03
2022-07-31T08:48:53.378Z,94366.28
2022-07-31T08:51:22.010Z,94365.22
2022-07-31T08:53:49.667Z,94361.91
2022-07-31T08:56:18.677Z,94361.59
2022-07-31T08:58:46.866Z,94359.97
2022-07-31T09:01:14.974Z,94355.59
2022-07-31T09:03:42.717Z,94367.59
2022-07-31T09:06:10.861Z,94360.19
2022-07-31T09:08:38.569Z,94363.97
2022-07-31T09:11:06.758Z,94360.13
2022-07-31T09:13:35.876Z,94359.06
2022-07-31T09:16:03.602Z,94357.94
2022-07-31T09:18:31.254Z,94358.22
2022-07-31T09:21:00.008Z,94362.28
2022-07-31T09:23:29.861Z,94358.97
2022-07-31T09:25:58.714Z,94359.50
2022-07-31T09:28:35.140Z,94354.09
2022-07-31T09:31:02.825Z,94367.25
2022-07-31T09:33:31.848Z,94356.88
2022-07-31T09:36:00.082Z,94350.97
2022-07-31T09:38:32.157Z,94351.03
2022-07-31T09:41:52.400Z,94352.19
2022-07-31T09:44:00.575Z,94353.59
2022-07-31T09:46:28.403Z,94350.63
2022-07-31T09:49:00.167Z,94351.19
2022-07-31T09:51:27.996Z,94353.69
2022-07-31T09:53:57.656Z,94361.38
2022-07-31T09:56:30.895Z,94354.03
2022-07-31T09:58:59.964Z,94360.09
2022-07-31T10:01:27.807Z,94363.13
2022-07-31T10:03:56.759Z,94356.31
2022-07-31T10:06:24.486Z,94357.44
2022-07-31T10:08:52.353Z,94364.25
2022-07-31T10:11:20.521Z,94361.84
2022-07-31T10:13:50.013Z,94368.69
2022-07-31T10:16:19.065Z,94364.84
2022-07-31T10:18:48.150Z,94367.06
2022-07-31T10:21:15.861Z,94360.78
2022-07-31T10:23:43.449Z,94371.16
2022-07-31T10:26:11.111Z,94360.84
2022-07-31T10:28:39.116Z,94369.81
2022-07-31T10:31:06.764Z,94365.19
2022-07-31T10:33:44.707Z,94366.00
2022-07-31T10:36:13.201Z,94366.28
2022-07-31T10:38:42.626Z,94369.03
2022-07-31T10:41:13.278Z,94366.28
2022-07-31T10:43:44.840Z,94363.56
2022-07-31T10:46:12.753Z,94352.41
2022-07-31T10:48:51.558Z,94358.69
2022-07-31T10:51:19.205Z,94349.69
2022-07-31T10:53:55.367Z,94352.41
2022-07-31T10:56:23.878Z,94349.16
2022-07-31T10:58:54.475Z,94350.78
2022-07-31T11:01:22.701Z,94340.97
2022-07-31T11:03:59.991Z,94336.56
2022-07-31T11:06:27.889Z,94341.44
2022-07-31T11:08:55.672Z,94339.81
2022-07-31T11:11:32.301Z,94341.44
2022-07-31T11:14:00.495Z,94344.47
2022-07-31T11:16:28.847Z,94348.81
2022-07-31T11:19:01.271Z,94341.44
2022-07-31T11:21:40.444Z,94337.38
2022-07-31T11:24:15.394Z,94348.28
2022-07-31T11:26:44.270Z,94350.19
2022-07-31T11:29:59.153Z,94345.56
2022-07-31T11:32:13.916Z,94352.13
2022-07-31T11:34:48.349Z,94341.44
2022-07-31T11:37:20.442Z,94338.41
2022-07-31T11:39:51.643Z,94340.88
2022-07-31T11:42:20.566Z,94332.69
2022-07-31T11:44:54.567Z,94331.59
2022-07-31T11:48:09.470Z,94325.59
2022-07-31T11:50:11.371Z,94318.53
2022-07-31T11:52:43.302Z,94316.31
2022-07-31T11:55:13.233Z,94317.41
2022-07-31T11:57:52.346Z,94313.34
2022-07-31T12:00:27.182Z,94314.97
2022-07-31T12:02:58.327Z,94316.88
2022-07-31T12:05:37.962Z,94313.34
2022-07-31T12:08:06.978Z,94309.00
2022-07-31T12:10:34.631Z,94315.25
2022-07-31T12:13:03.053Z,94309.78
2022-07-31T12:15:30.668Z,94302.69
2022-07-31T12:18:01.169Z,94306.53
2022-07-31T12:20:35.992Z,94305.75
2022-07-31T12:23:06.070Z,94306.53
2022-07-31T12:25:43.305Z,94293.72
2022-07-31T12:28:11.251Z,94307.59
2022-07-31T12:30:38.836Z,94292.03
2022-07-31T12:33:07.410Z,94294.75
2022-07-31T12:35:56.213Z,94288.78
2022-07-31T12:38:41.044Z,94285.78
2022-07-31T12:41:13.416Z,94285.78
2022-07-31T12:43:51.884Z,94291.22
2022-07-31T12:46:23.729Z,94288.19
2022-07-31T12:48:51.891Z,94283.56
2022-07-31T12:51:45.440Z,94284.66
2022-07-31T12:54:09.000Z,94281.09
2022-07-31T12:56:36.756Z,94276.75
2022-07-31T12:59:04.473Z,94270.47
2022-07-31T13:01:32.127Z,94272.91
2022-07-31T13:03:59.783Z,94268.56
2022-07-31T13:06:32.301Z,94263.38
2022-07-31T13:08:59.910Z,94259.88
2022-07-31T13:11:30.325Z,94257.94
2022-07-31T13:14:15.090Z,94268.34
2022-07-31T13:16:42.766Z,94262.34
2022-07-31T13:19:10.385Z,94252.28
2022-07-31T13:21:49.083Z,94249.81
2022-07-31T13:24:17.509Z,94242.47
2022-07-31T13:26:45.708Z,94254.44
2022-07-31T13:29:13.695Z,94250.66
2022-07-31T13:31:41.678Z,94238.63
2022-07-31T13:34:09.310Z,94232.06
2022-07-31T13:36:38.905Z,94231.22
2022-07-31T13:39:08.699Z,94224.38
2022-07-31T13:41:38.862Z,94220.56
2022-07-31T13:44:07.176Z,94223.28
2022-07-31T13:46:34.902Z,94224.91
2022-07-31T13:49:03.990Z,94228.16
2022-07-31T13:51:31.602Z,94226.25
2022-07-31T13:53:59.260Z,94223.22
2022-07-31T13:56:39.693Z,94215.34
2022-07-31T13:59:11.388Z,94228.97
2022-07-31T14:02:03.326Z,94224.31
2022-07-31T14:04:28.544Z,94225.16
2022-07-31T14:07:00.828Z,94216.13
2022-07-31T14:09:28.590Z,94217.75
2022-07-31T14:11:57.516Z,94222.09
2022-07-31T14:14:25.289Z,94222.09
2022-07-31T14:16:52.934Z,94215.63
2022-07-31T14:19:20.879Z,94217.81
2022-07-31T14:21:56.294Z,94217.00
2022-07-31T14:24:24.828Z,94219.44
2022-07-31T14:26:52.492Z,94221.91
2022-07-31T14:29:21.504Z,94222.19
2022-07-31T14:31:49.105Z,94231.47
2022-07-31T14:34:16.717Z,94227.41
2022-07-31T14:36:44.376Z,94220.03
2022-07-31T14:39:11.972Z,94213.75
2022-07-31T14:41:39.578Z,94213.16
2022-07-31T14:44:07.205Z,94215.09
2022-07-31T14:46:36.172Z,94215.63
2022-07-31T14:49:04.605Z,94211.78
2022-07-31T14:51:32.280Z,94206.31
2022-07-31T14:54:00.567Z,94213.72
2022-07-31T14:56:58.642Z,94213.72
2022-07-31T14:59:16.446Z,94217.00
2022-07-31T15:01:45.475Z,94215.09
2022-07-31T15:04:13.127Z,94210.16
2022-07-31T15:06:59.020Z,94200.84
2022-07-31T15:09:28.296Z,94199.25
2022-07-31T15:12:01.319Z,94200.34
2022-07-31T15:14:29.702Z,94201.44
2022-07-31T15:16:58.655Z,94198.72
2022-07-31T15:19:26.256Z,94194.38
2022-07-31T15:22:16.074Z,94193.84
2022-07-31T15:24:48.364Z,94195.75
2022-07-31T15:27:17.161Z,94194.66
2022-07-31T15:30:05.393Z,94191.94
2022-07-31T15:32:33.876Z,94198.72
2022-07-31T15:35:01.518Z,94191.66
2022-07-31T15:37:30.029Z,94188.91
2022-07-31T15:40:02.638Z,94185.06
2022-07-31T15:42:31.792Z,94183.47
2022-07-31T15:44:59.423Z,94183.47
2022-07-31T15:47:26.998Z,94183.47
2022-07-31T15:49:56.047Z,94182.63
2022-07-31T15:52:23.658Z,94186.19
2022-07-31T15:54:52.559Z,94187.81
2022-07-31T15:57:21.054Z,94181.25
2022-07-31T15:59:49.197Z,94186.97
2022-07-31T16:02:16.847Z,94194.06
2022-07-31T16:04:51.670Z,94180.13
2022-07-31T16:08:29.261Z,94185.81
2022-07-31T16:10:16.124Z,94180.88
2022-07-31T16:12:44.783Z,94169.69
2022-07-31T16:15:12.648Z,94171.00
2022-07-31T16:17:40.559Z,94173.22
2022-07-31T16:20:09.545Z,94169.69
2022-07-31T16:22:38.863Z,94168.06
2022-07-31T16:25:07.612Z,94171.06
2022-07-31T16:27:35.303Z,94165.63
2022-07-31T16:30:03.259Z,94165.91
2022-07-31T16:32:31.230Z,94159.66
2022-07-31T16:35:01.238Z,94158.81
2022-07-31T16:37:50.137Z,94155.28
2022-07-31T16:40:29.455Z,94150.63
2022-07-31T16:43:00.704Z,94150.03
2022-07-31T16:45:28.529Z,94148.03
2022-07-31T16:47:56.135Z,94144.94
2022-07-31T16:50:24.111Z,94146.00
2022-07-31T16:52:54.902Z,94147.53
2022-07-31T16:55:51.590Z,94144.75
2022-07-31T16:58:13.658Z,94151.75
2022-07-31T17:00:41.353Z,94149.75
2022-07-31T17:03:58.528Z,94137.94
2022-07-31T17:05:56.658Z,94146.03
2022-07-31T17:08:24.279Z,94138.88
2022-07-31T17:10:54.769Z,94137.19
2022-07-31T17:13:22.668Z,94132.22
2022-07-31T17:15:50.269Z,94130.84
2022-07-31T17:18:17.887Z,94134.09
2022-07-31T17:20:47.063Z,94139.78
2022-07-31T17:23:14.787Z,94133.50
2022-07-31T17:25:43.455Z,94125.00
2022-07-31T17:28:15.373Z,94140.47
2022-07-31T17:30:44.861Z,94132.28
2022-07-31T17:33:12.448Z,94131.50
2022-07-31T17:35:40.297Z,94141.59
2022-07-31T17:38:07.906Z,94140.47
2022-07-31T17:40:44.142Z,94140.47
2022-07-31T17:43:13.444Z,94142.41
2022-07-31T17:45:59.637Z,94148.41
2022-07-31T17:48:28.859Z,94144.84
2022-07-31T17:50:56.771Z,94146.50
2022-07-31T17:53:24.373Z,94147.19
2022-07-31T17:56:13.036Z,94148.28
2022-07-31T17:58:42.945Z,94155.19
2022-07-31T18:01:10.700Z,94152.13
2022-07-31T18:03:38.315Z,94148.50
2022-07-31T18:06:05.959Z,94152.66
2022-07-31T18:08:33.589Z,94159.75
2022-07-31T18:11:01.174Z,94155.38
2022-07-31T18:13:28.797Z,94159.22
2022-07-31T18:15:58.545Z,94150.44
2022-07-31T18:18:26.225Z,94154.28
2022-07-31T18:20:53.881Z,94155.91
2022-07-31T18:23:22.936Z,94162.69
2022-07-31T18:25:51.417Z,94159.44
2022-07-31T18:28:19.009Z,94151.75
2022-07-31T18:30:46.685Z,94154.19
2022-07-31T18:33:17.234Z,94143.78
2022-07-31T18:35:44.871Z,94147.00
2022-07-31T18:38:12.580Z,94151.69
2022-07-31T18:40:40.175Z,94149.47
2022-07-31T18:43:07.809Z,94149.13
2022-07-31T18:45:35.996Z,94146.72
2022-07-31T18:48:09.146Z,94148.63
2022-07-31T18:51:00.503Z,94148.63
2022-07-31T18:53:26.077Z,94159.88
2022-07-31T18:55:53.669Z,94154.41
2022-07-31T18:58:21.248Z,94158.78
2022-07-31T19:00:54.568Z,94164.53
2022-07-31T19:03:23.351Z,94159.88
2022-07-31T19:05:52.972Z,94156.31
2022-07-31T19:08:21.101Z,94157.94
2022-07-31T19:10:49.237Z,94151.88
2022-07-31T19:13:18.839Z,94160.28
2022-07-31T19:15:47.414Z,94152.91
2022-07-31T19:18:15.286Z,94159.19
2022-07-31T19:21:00.255Z,94158.88
2022-07-31T19:23:34.119Z,94162.13
2022-07-31T19:26:03.709Z,94160.22
2022-07-31T19:28:32.172Z,94153.41
2022-07-31T19:30:59.896Z,94162.13
2022-07-31T19:33:27.558Z,94168.81
2022-07-31T19:36:01.239Z,94166.38
2022-07-31T19:38:29.847Z,94167.97
2022-07-31T19:40:58.836Z,94168.19
2022-07-31T19:43:26.639Z,94173.88
2022-07-31T19:46:09.554Z,94170.63
2022-07-31T19:48:40.506Z,94171.22
2022-07-31T19:51:08.376Z,94170.50
2022-07-31T19:53:36.073Z,94171.72
2022-07-31T19:56:06.367Z,94165.75
2022-07-31T19:58:34.569Z,94169.88
2022-07-31T20:01:02.507Z,94164.50
2022-07-31T20:03:30.333Z,94168.63
2022-07-31T20:05:58.191Z,94161.84
2022-07-31T20:08:25.816Z,94166.50
2022-07-31T20:10:54.798Z,94169.00
2022-07-31T20:13:23.712Z,94170.63
2022-07-31T20:15:53.148Z,94169.31
2022-07-31T20:18:27.423Z,94160.59
2022-07-31T20:20:56.841Z,94168.78
2022-07-31T20:23:24.728Z,94171.25
2022-07-31T20:25:52.317Z,94166.56
2022-07-31T20:28:19.931Z,94168.72
2022-07-31T20:30:48.917Z,94166.88
2022-07-31T20:33:16.617Z,94167.50
2022-07-31T20:35:48.738Z,94168.56
2022-07-31T20:38:17.639Z,94162.88
2022-07-31T20:40:48.270Z,94150.84
2022-07-31T20:43:23.186Z,94156.59
2022-07-31T20:45:52.301Z,94151.44
2022-07-31T20:48:21.788Z,94158.53
2022-07-31T20:50:49.412Z,94149.78
2022-07-31T20:53:17.296Z,94144.44
2022-07-31T20:55:46.948Z,94147.44
2022-07-31T20:58:14.801Z,94151.09
2022-07-31T21:00:42.445Z,94138.75
2022-07-31T21:03:11.577Z,94143.91
2022-07-31T21:05:39.224Z,94150.50
2022-07-31T21:08:06.940Z,94138.44
2022-07-31T21:10:35.456Z,94146.13
2022-07-31T21:13:03.243Z,94145.31
2022-07-31T21:15:42.314Z,94139.34
2022-07-31T21:18:13.689Z,94140.16
2022-07-31T21:20:51.911Z,94135.81
2022-07-31T21:23:21.432Z,94133.38
2022-07-31T21:25:49.396Z,94133.09
2022-07-31T21:28:17.499Z,94131.97
2022-07-31T21:30:45.379Z,94134.69
2022-07-31T21:33:14.623Z,94134.69
2022-07-31T21:35:42.721Z,94137.94
2022-07-31T21:38:11.960Z,94134.38
2022-07-31T21:40:40.102Z,94136.00
2022-07-31T21:43:08.161Z,94129.81
2022-07-31T21:45:50.550Z,94131.44
2022-07-31T21:48:25.728Z,94135.28
2022-07-31T21:50:53.531Z,94138.53
2022-07-31T21:53:21.223Z,94141.28
2022-07-31T21:55:49.201Z,94133.88
2022-07-31T21:58:17.900Z,94136.59
2022-07-31T22:00:45.694Z,94143.28
2022-07-31T22:03:13.455Z,94134.75
2022-07-31T22:06:08.667Z,94139.72
2022-07-31T22:08:36.307Z,94140.81
2022-07-31T22:11:03.930Z,94140.59
2022-07-31T22:13:31.545Z,94136.56
2022-07-31T22:16:00.984Z,94140.38
2022-07-31T22:18:29.124Z,94143.41
2022-07-31T22:20:58.384Z,94142.41
2022-07-31T22:23:26.926Z,94144.59
2022-07-31T22:25:54.649Z,94142.97
2022-07-31T22:28:23.174Z,94148.75
2022-07-31T22:30:51.247Z,94142.75
2022-07-31T22:33:18.939Z,94145.78
2022-07-31T22:36:00.366Z,94144.94
2022-07-31T22:38:30.604Z,94145.25
2022-07-31T22:40:58.580Z,94150.22
2022-07-31T22:44:12.339Z,94140.41
2022-07-31T22:46:14.182Z,94139.56
2022-07-31T22:48:41.930Z,94143.41
2022-07-31T22:51:10.695Z,94144.53
2022-07-31T22:53:41.941Z,94143.19
2022-07-31T22:56:09.562Z,94143.19
2022-07-31T22:58:37.159Z,94141.56
2022-07-31T23:01:04.797Z,94140.78
2022-07-31T23:03:32.416Z,94139.94
2022-07-31T23:06:02.680Z,94142.97
2022-07-31T23:08:54.698Z,94147.63
2022-07-31T23:11:23.401Z,94142.44
2022-07-31T23:13:51.179Z,94147.09
2022-07-31T23:16:20.134Z,94142.44
2022-07-31T23:18:47.750Z,94143.56
2022-07-31T23:21:15.357Z,94150.94
2022-07-31T23:23:48.853Z,94146.59
2022-07-31T23:26:19.177Z,94149.31
2022-07-31T23:28:46.926Z,94140.59
2022-07-31T23:31:14.595Z,94142.53
2022-07-31T23:33:42.524Z,94140.91
2022-07-31T23:36:10.140Z,94143.63
2022-07-31T23:38:37.820Z,94146.34
2022-07-31T23:41:05.486Z,94149.09
2022-07-31T23:43:33.447Z,94151.31
2022-07-31T23:46:01.041Z,94158.38
2022-07-31T23:48:29.865Z,94161.13
2022-07-31T23:50:57.994Z,94149.38
2022-07-31T23:53:25.600Z,94156.75
2022-07-31T23:55:53.333Z,94158.66
2022-07-31T23:58:21.273Z,94160.59
